메인 페이지
METAR-TAF:

METAR-TAF

공항 :

Phillip Goldston

벨리즈시티, 벨리즈

위도: 17-32N, 경도: 088-18W, 고도: 5m

현재 날씨관측

예보는 3 시간 9분 전, 03:00시(UTC)에 발표되었습니다.
5kt
온도 28°C
습도 89%
기압 1017 hPa
시정 10km 이상
고도 1800ft 상공 구름 보통

METAR: MZBZ 170300Z 10005KT 9999 SCT018 28/26 A3005 Q1017 NOSIG

시각: 00:09 (06:09 UTC)

예보

예보는 3 시간 9분 전, 03:00시(UTC)에 발표되었습니다.
예보 대상 시간: 17일 06시부터 18일 06시까지 (UTC)
7kt
시정 10km 이상
고도 2200ft 상공 구름 보통
확률 30% :
일시적
17일 06시부터 17일 12시까지 (UTC)
시정: 4000m
고도 1400ft 상공 구름 많음
소나기
확률 40% :
일시적
30시부터 00시까지 (UTC)
고도 1200ft 상공 구름 보통, 적란운.
고도 3500ft 상공 구름 많음
뇌우, 비

TAF: MZBZ 170300Z 1706/1806 08007KT 9999 SCT022 PROB30 TEMPO 1706/1712 4000 SHRA BKN014 PROB40 TEMPO 3000 TSRA SCT012CB BKN035

4,000개 이상의 공항 관측 자료 및 예보 (METAR 및 TAF 보고).

지도상에서 검색 가능한 기상관측소가 노란 점과 빨간 점으로 표시되어 있습니다.

기상관측소 명을 보려면 표시 위로 마우스를 이동하세요.

날씨 관측과 예보를 보려면 클릭하세요.

지도 변경 : 확대하려면 엑스 표시가 있는 녹색 버튼, 축소하려면 빼기 표시가 있는 녹색 버튼, 다음 페이지의 지도를 보려면 녹색 화살표를 클릭하세요.


METAR-TAF: